Pagrindinis puslapis
METAR-TAF:

METAR-TAF

Oro uostai :

Kororas, Babeltuapas, Palau

platuma: 07-22N, ilguma: 134-32E, Aukštis: 54 m

Dabartinis oras

Ataskaita buvo paskelbta 1 valandą ir 3 minutes, ne 03:50 UTC
Vėjas 8 kt iš Pietų/Pietvakarių
Temperatūra 31°C
Drėgmė 66%
Slėgis 1012 hPa
Matomumas: 24.1 km
Išsisklaidę debesys ne aukštis 1700 ft
Su prošvaistėmis ne aukštis 12000 ft
Su prošvaistėmis ne aukštis 30000 ft

METAR: PTRO 180350Z 20008KT 15SM SCT017 BKN120 BKN300 31/24 A2987

Laikas: 13:53 (04:53 UTC)

Prognozė

Ataskaita buvo paskelbta 5 valandos ir 12 minutes, ne 23:41 UTC
Prognozė galioja nuo 18 metu 00 UTC su 18 metu 24 UTC
Vėjas 4 kt iš Pietų
Matomumas: 10 km
Mažai debesys ne aukštis 2000 ft
Išsisklaidę debesys ne aukštis 16000 ft
Nuo 18 metu 0200 UTC
Vėjas 8 kt iš Pietų
Matomumas: 10 km
Išsisklaidę debesys ne aukštis 1800 ft
Išsisklaidę debesys ne aukštis 14000 ft
Liūtis kaimynystėje

TAF: PTRO 172341Z 1800/1824 18004KT P6SM FEW020 SCT160 FM180200 18008KT P6SM VCSH SCT018 SCT140

Orai ataskaitas ir orų prognozės (METAR, TAF).

turimą stotys yra geltonos ir raudonos taškus žemėlapyje.

Perkelti pele per norėdami pamatyti stoties vardą.

Tada spustelėkite, norėdami matyti oro stebėjimo ir prognozės.

Norėdami pakeisti žemėlapį: spustelėkite ant žalios mygtukų su juodo kryžiaus žemyn,; žalią mygtuką su brūkšneliu, jei norite nutolinti; arba žalių rodyklių gretimoms žemėlapius.


METAR-TAF: